Terminal Aerodrome Forecast
Issued by NWS Jackson, MS

Home | Current Version | Previous Version | Text Only | Print | Product List | Glossary On
Versions: 1 2 3 4 5 6 7 8 9 10 11 12 13 14 15 16 17 18 19 20 21 22 23 24 25 26 27 28 29 30 31
000
FTUS44 KMEG 190345 AAA
TAFTUP
TAF AMD
KTUP 190345Z 1904/1924 12003KT P6SM -SHRA OVC035
     FM190500 15007KT 5SM -SHRA BR SCT009 OVC015
     FM190700 21009KT 4SM -SHRA BR SCT004 OVC007
     FM191200 25008KT P6SM BKN015
     FM191500 25010KT P6SM SCT025 BKN040
     FM192000 25010KT P6SM SCT040 BKN250=

USA.gov is the U.S. government's official web portal to all federal, state and local government web resources and services.